createdAt,value
2018-07-31T00:01:24.380Z,96.30
2018-07-31T00:03:53.060Z,96.40
2018-07-31T00:06:24.103Z,96.60
2018-07-31T00:08:54.211Z,96.80
2018-07-31T00:11:22.357Z,96.80
2018-07-31T00:13:50.468Z,97.10
2018-07-31T00:16:18.028Z,97.00
2018-07-31T00:18:45.581Z,97.00
2018-07-31T00:21:13.292Z,97.00
2018-07-31T00:23:40.846Z,96.90
2018-07-31T00:28:37.012Z,97.20
2018-07-31T00:31:04.727Z,96.80
2018-07-31T00:33:33.105Z,96.70
2018-07-31T00:36:00.848Z,96.70
2018-07-31T00:38:28.426Z,96.70
2018-07-31T00:40:55.965Z,96.70
2018-07-31T00:43:23.489Z,96.60
2018-07-31T00:45:51.382Z,96.60
2018-07-31T00:50:46.585Z,96.60
2018-07-31T00:55:41.713Z,96.80
2018-07-31T00:58:09.301Z,97.00
2018-07-31T01:00:36.903Z,97.10
2018-07-31T01:03:04.617Z,97.00
2018-07-31T01:07:59.694Z,97.10
2018-07-31T01:10:27.327Z,97.10
2018-07-31T01:12:54.871Z,97.20
2018-07-31T01:17:49.932Z,97.40
2018-07-31T01:20:18.447Z,97.50
2018-07-31T01:22:46.011Z,97.60
2018-07-31T01:25:13.549Z,97.70
2018-07-31T01:27:41.125Z,98.10
2018-07-31T01:30:08.736Z,98.20
2018-07-31T01:32:36.304Z,98.20
2018-07-31T01:39:58.841Z,98.10
2018-07-31T01:42:26.388Z,97.90
2018-07-31T01:44:54.017Z,97.70
2018-07-31T01:47:21.978Z,97.70
2018-07-31T01:49:49.518Z,97.60
2018-07-31T01:52:17.122Z,97.60
2018-07-31T01:54:44.988Z,97.60
2018-07-31T01:57:12.560Z,97.40
2018-07-31T01:59:40.124Z,97.40
2018-07-31T02:02:07.685Z,97.40
2018-07-31T02:04:35.304Z,97.50
2018-07-31T02:07:02.982Z,97.60
2018-07-31T02:09:30.702Z,97.70
2018-07-31T02:11:58.260Z,97.70
2018-07-31T02:14:25.798Z,97.70
2018-07-31T02:16:53.338Z,97.70
2018-07-31T02:19:21.426Z,97.70
2018-07-31T02:21:48.950Z,97.80
2018-07-31T02:26:43.972Z,97.90
2018-07-31T02:29:11.520Z,98.10
2018-07-31T02:31:39.056Z,98.10
2018-07-31T02:34:06.575Z,98.30
2018-07-31T02:36:34.364Z,98.40
2018-07-31T02:39:01.996Z,98.40
2018-07-31T02:43:57.049Z,98.10
2018-07-31T02:46:24.655Z,98.10
2018-07-31T02:48:53.357Z,98.20
2018-07-31T02:51:21.452Z,98.30
2018-07-31T02:53:49.030Z,98.30
2018-07-31T02:56:16.557Z,98.30
2018-07-31T02:58:44.113Z,98.10
2018-07-31T03:01:11.689Z,97.90
2018-07-31T03:03:39.228Z,97.80
2018-07-31T03:13:29.259Z,98.00
2018-07-31T03:20:52.757Z,98.10
2018-07-31T03:23:21.007Z,98.20
2018-07-31T03:25:48.545Z,98.20
2018-07-31T03:28:16.160Z,98.50
2018-07-31T03:30:43.647Z,98.60
2018-07-31T03:33:11.173Z,98.50
2018-07-31T03:35:38.711Z,98.60
2018-07-31T03:38:06.236Z,98.70
2018-07-31T03:40:33.790Z,99.20
2018-07-31T03:43:01.396Z,99.40
2018-07-31T03:45:28.948Z,99.50
2018-07-31T03:47:56.494Z,99.50
2018-07-31T03:50:24.072Z,99.50
2018-07-31T03:52:52.666Z,99.30
2018-07-31T03:55:20.960Z,99.30
2018-07-31T03:57:48.486Z,99.20
2018-07-31T04:00:16.299Z,99.20
2018-07-31T04:02:44.007Z,99.10
2018-07-31T04:07:39.150Z,99.30
2018-07-31T04:10:06.709Z,99.10
2018-07-31T04:12:34.424Z,99.80
2018-07-31T04:15:02.010Z,99.90
2018-07-31T04:17:29.532Z,99.90
2018-07-31T04:22:24.738Z,99.50
2018-07-31T04:24:52.980Z,99.70
2018-07-31T04:27:21.170Z,98.90
2018-07-31T04:29:48.827Z,98.40
2018-07-31T04:32:16.387Z,98.10
2018-07-31T04:34:43.946Z,98.30
2018-07-31T04:37:11.506Z,98.80
2018-07-31T04:39:39.137Z,99.20
2018-07-31T04:42:06.722Z,98.90
2018-07-31T04:44:34.362Z,98.60
2018-07-31T04:47:01.999Z,98.50
2018-07-31T04:49:29.771Z,98.70
2018-07-31T04:54:24.814Z,98.10
2018-07-31T04:56:52.487Z,97.50
2018-07-31T04:59:19.973Z,96.60
2018-07-31T05:01:47.831Z,96.40
2018-07-31T05:04:15.378Z,96.40
2018-07-31T05:06:42.907Z,96.70
2018-07-31T05:09:12.093Z,97.10
2018-07-31T05:11:39.662Z,97.20
2018-07-31T05:16:35.314Z,97.40
2018-07-31T05:19:03.167Z,97.40
2018-07-31T05:21:30.729Z,97.20
2018-07-31T05:26:25.812Z,96.90
2018-07-31T05:28:53.361Z,96.90
2018-07-31T05:33:48.743Z,96.70
2018-07-31T05:36:16.379Z,96.40
2018-07-31T05:38:43.962Z,96.80
2018-07-31T05:41:11.574Z,97.00
2018-07-31T05:43:39.128Z,96.80
2018-07-31T05:46:06.779Z,96.60
2018-07-31T05:48:34.387Z,96.10
2018-07-31T05:51:01.959Z,96.10
2018-07-31T05:53:29.522Z,96.00
2018-07-31T06:03:19.597Z,94.70
2018-07-31T06:05:47.206Z,94.40
2018-07-31T06:08:14.783Z,94.20
2018-07-31T06:10:42.310Z,93.90
2018-07-31T06:13:09.893Z,93.50
2018-07-31T06:18:04.988Z,92.90
2018-07-31T06:20:32.521Z,92.90
2018-07-31T06:23:00.089Z,93.00
2018-07-31T06:25:27.717Z,93.10
2018-07-31T06:27:55.208Z,93.00
2018-07-31T06:30:22.764Z,93.00
2018-07-31T06:32:51.339Z,93.00
2018-07-31T06:35:18.920Z,93.00
2018-07-31T06:37:46.446Z,92.80
2018-07-31T06:40:14.012Z,92.70
2018-07-31T06:42:41.590Z,92.80
2018-07-31T06:45:09.172Z,92.90
2018-07-31T06:47:36.688Z,92.90
2018-07-31T06:52:31.873Z,92.60
2018-07-31T06:54:59.478Z,92.60
2018-07-31T06:57:27.017Z,92.40
2018-07-31T06:59:54.608Z,92.30
2018-07-31T07:02:22.662Z,92.20
2018-07-31T07:04:50.808Z,91.90
2018-07-31T07:09:45.807Z,91.60
2018-07-31T07:12:13.435Z,91.50
2018-07-31T07:14:40.983Z,91.70
2018-07-31T07:17:08.527Z,91.80
2018-07-31T07:19:36.100Z,91.70
2018-07-31T07:22:03.710Z,91.50
2018-07-31T07:24:31.249Z,91.30
2018-07-31T07:26:58.770Z,91.20
2018-07-31T07:31:53.826Z,90.60
2018-07-31T07:36:49.399Z,90.30
2018-07-31T07:39:16.978Z,90.30
2018-07-31T07:44:12.022Z,90.60
2018-07-31T07:46:39.628Z,90.20
2018-07-31T07:49:07.657Z,90.20
2018-07-31T07:51:35.230Z,90.20
2018-07-31T07:54:02.915Z,89.70
2018-07-31T07:56:30.420Z,89.20
2018-07-31T07:58:57.950Z,88.80
2018-07-31T08:01:25.681Z,89.00
2018-07-31T08:03:53.241Z,89.20
2018-07-31T08:06:21.616Z,88.50
2018-07-31T08:08:49.204Z,88.30
2018-07-31T08:11:16.766Z,86.70
2018-07-31T08:13:44.346Z,85.70
2018-07-31T08:16:11.916Z,85.40
2018-07-31T08:18:39.516Z,84.40
2018-07-31T08:21:07.109Z,83.50
2018-07-31T08:23:34.655Z,83.40
2018-07-31T08:26:02.192Z,82.00
2018-07-31T08:28:29.738Z,81.70
2018-07-31T08:30:57.319Z,81.00
2018-07-31T08:33:24.850Z,80.40
2018-07-31T08:35:52.860Z,78.90
2018-07-31T08:38:20.752Z,78.00
2018-07-31T08:40:48.317Z,77.00
2018-07-31T08:43:15.860Z,76.10
2018-07-31T08:45:43.674Z,76.10
2018-07-31T08:48:11.255Z,75.90
2018-07-31T08:50:38.844Z,75.80
2018-07-31T08:53:06.397Z,75.70
2018-07-31T08:55:34.441Z,74.80
2018-07-31T08:58:02.079Z,74.20
2018-07-31T09:00:29.608Z,73.60
2018-07-31T09:02:57.270Z,72.30
2018-07-31T09:05:24.825Z,71.80
2018-07-31T09:07:52.370Z,70.90
2018-07-31T09:12:48.109Z,72.00
2018-07-31T09:15:15.713Z,69.90
2018-07-31T09:17:43.277Z,69.70
2018-07-31T09:20:10.911Z,69.20
2018-07-31T09:22:38.513Z,69.90
2018-07-31T09:25:06.110Z,69.20
2018-07-31T09:27:33.635Z,68.30
2018-07-31T09:30:01.263Z,67.80
2018-07-31T09:32:34.489Z,66.90
2018-07-31T09:35:02.030Z,65.50
2018-07-31T09:37:29.609Z,65.70
2018-07-31T09:39:57.175Z,64.70
2018-07-31T09:42:24.876Z,64.30
2018-07-31T09:44:52.465Z,63.20
2018-07-31T09:47:20.015Z,63.90
2018-07-31T09:49:47.593Z,62.90
2018-07-31T09:52:15.141Z,61.50
2018-07-31T09:54:42.755Z,60.10
2018-07-31T09:57:10.413Z,58.70
2018-07-31T09:59:37.966Z,59.80
2018-07-31T10:02:06.009Z,59.50
2018-07-31T10:04:33.533Z,58.60
2018-07-31T10:07:01.675Z,57.40
2018-07-31T10:09:29.194Z,54.70
2018-07-31T10:11:56.890Z,54.50
2018-07-31T10:14:24.393Z,54.90
2018-07-31T10:16:52.054Z,53.80
2018-07-31T10:19:19.588Z,52.80
2018-07-31T10:21:47.235Z,51.10
2018-07-31T10:24:14.789Z,50.30
2018-07-31T10:26:42.403Z,50.00
2018-07-31T10:29:10.160Z,49.60
2018-07-31T10:31:37.754Z,49.20
2018-07-31T10:34:05.445Z,48.40
2018-07-31T10:36:32.999Z,48.00
2018-07-31T10:39:00.648Z,47.20
2018-07-31T10:41:28.227Z,46.60
2018-07-31T10:43:55.810Z,46.40
2018-07-31T10:46:23.357Z,45.70
2018-07-31T10:48:51.684Z,45.30
2018-07-31T10:51:19.815Z,44.70
2018-07-31T10:56:14.817Z,43.60
2018-07-31T10:58:42.374Z,41.80
2018-07-31T11:01:09.931Z,41.20
2018-07-31T11:06:05.111Z,41.80
2018-07-31T11:11:00.137Z,40.70
2018-07-31T11:13:27.690Z,39.80
2018-07-31T11:15:56.022Z,40.10
2018-07-31T11:18:23.667Z,40.00
2018-07-31T11:20:51.740Z,39.30
2018-07-31T11:23:19.997Z,38.00
2018-07-31T11:25:47.569Z,38.30
2018-07-31T11:28:15.120Z,37.90
2018-07-31T11:30:42.638Z,39.20
2018-07-31T11:33:10.263Z,39.40
2018-07-31T11:35:37.813Z,39.00
2018-07-31T11:38:05.447Z,37.40
2018-07-31T11:40:33.015Z,36.90
2018-07-31T11:43:00.591Z,35.40
2018-07-31T11:45:28.138Z,34.40
2018-07-31T11:47:55.660Z,35.10
2018-07-31T11:50:23.300Z,36.30
2018-07-31T11:52:51.452Z,36.40
2018-07-31T11:55:19.579Z,35.90
2018-07-31T11:57:47.163Z,35.50
2018-07-31T12:00:14.751Z,35.50
2018-07-31T12:02:42.435Z,35.80
2018-07-31T12:05:10.042Z,35.90
2018-07-31T12:07:37.619Z,35.30
2018-07-31T12:10:05.452Z,35.40
2018-07-31T12:12:32.987Z,33.70
2018-07-31T12:15:00.540Z,32.50
2018-07-31T12:17:28.066Z,32.50
2018-07-31T12:19:55.689Z,33.00
2018-07-31T12:22:23.261Z,33.30
2018-07-31T12:24:51.498Z,32.80
2018-07-31T12:29:46.814Z,32.60
2018-07-31T12:32:14.410Z,33.00
2018-07-31T12:34:41.955Z,33.30
2018-07-31T12:37:09.620Z,33.60
2018-07-31T12:39:37.165Z,33.10
2018-07-31T12:42:04.775Z,34.00
2018-07-31T12:44:32.321Z,33.70
2018-07-31T12:46:59.856Z,34.70
2018-07-31T12:49:27.610Z,35.90
2018-07-31T12:51:55.173Z,35.60
2018-07-31T12:54:22.764Z,34.50
2018-07-31T12:56:50.872Z,34.20
2018-07-31T12:59:18.518Z,34.30
2018-07-31T13:01:46.088Z,34.10
2018-07-31T13:04:13.686Z,33.60
2018-07-31T13:06:41.255Z,33.50
2018-07-31T13:09:08.862Z,32.50
2018-07-31T13:11:36.474Z,32.60
2018-07-31T13:14:04.154Z,32.30
2018-07-31T13:18:59.651Z,30.50
2018-07-31T13:21:27.158Z,31.20
2018-07-31T13:23:54.730Z,32.70
2018-07-31T13:26:22.286Z,34.00
2018-07-31T13:28:50.708Z,34.10
2018-07-31T13:31:18.493Z,34.70
2018-07-31T13:33:46.070Z,36.30
2018-07-31T13:36:15.081Z,34.80
2018-07-31T13:38:42.656Z,34.10
2018-07-31T13:41:10.261Z,33.50
2018-07-31T13:43:37.937Z,33.50
2018-07-31T13:46:05.609Z,32.60
2018-07-31T13:48:33.161Z,31.90
2018-07-31T13:51:00.729Z,31.10
2018-07-31T13:53:30.485Z,32.10
2018-07-31T13:58:25.454Z,31.90
2018-07-31T14:00:52.999Z,32.30
2018-07-31T14:03:20.982Z,33.80
2018-07-31T14:05:48.536Z,34.50
2018-07-31T14:08:16.102Z,34.50
2018-07-31T14:13:11.232Z,35.70
2018-07-31T14:15:38.779Z,34.60
2018-07-31T14:18:06.349Z,32.60
2018-07-31T14:25:28.915Z,30.70
2018-07-31T14:27:56.487Z,30.50
2018-07-31T14:30:24.061Z,30.10
2018-07-31T14:32:51.591Z,29.90
2018-07-31T14:35:19.850Z,29.90
2018-07-31T14:40:14.895Z,29.20
2018-07-31T14:42:42.501Z,29.30
2018-07-31T14:45:10.124Z,29.60
2018-07-31T14:47:37.761Z,28.80
2018-07-31T14:50:05.399Z,29.00
2018-07-31T14:52:32.989Z,28.60
2018-07-31T14:55:00.526Z,28.70
2018-07-31T14:59:55.552Z,28.90
2018-07-31T15:02:23.093Z,28.90
2018-07-31T15:04:51.264Z,28.60
2018-07-31T15:09:46.341Z,28.60
2018-07-31T15:12:13.971Z,28.30
2018-07-31T15:14:41.575Z,28.20
2018-07-31T15:17:09.131Z,28.70
2018-07-31T15:19:36.702Z,28.30
2018-07-31T15:22:04.300Z,28.10
2018-07-31T15:24:31.871Z,27.90
2018-07-31T15:26:59.437Z,28.20
2018-07-31T15:29:27.004Z,27.90
2018-07-31T15:31:54.550Z,27.80
2018-07-31T15:34:24.118Z,27.70
2018-07-31T15:36:51.721Z,27.70
2018-07-31T15:39:19.336Z,27.80
2018-07-31T15:41:46.899Z,28.00
2018-07-31T15:44:14.460Z,27.90
2018-07-31T15:46:42.046Z,28.00
2018-07-31T15:51:37.084Z,28.40
2018-07-31T15:54:04.840Z,28.60
2018-07-31T16:01:27.983Z,30.40
2018-07-31T16:03:55.566Z,30.30
2018-07-31T16:06:23.129Z,30.20
2018-07-31T16:11:19.250Z,29.70
2018-07-31T16:13:46.902Z,29.30
2018-07-31T16:16:14.453Z,28.90
2018-07-31T16:18:42.006Z,29.30
2018-07-31T16:21:09.572Z,28.70
2018-07-31T16:23:37.130Z,29.40
2018-07-31T16:26:04.833Z,29.70
2018-07-31T16:28:32.381Z,29.50
2018-07-31T16:30:59.954Z,28.80
2018-07-31T16:33:27.541Z,28.40
2018-07-31T16:35:55.177Z,28.40
2018-07-31T16:38:23.227Z,28.00
2018-07-31T16:40:51.361Z,28.00
2018-07-31T16:43:19.811Z,28.30
2018-07-31T16:45:47.389Z,28.30
2018-07-31T16:48:14.991Z,28.80
2018-07-31T16:50:42.559Z,28.90
2018-07-31T16:55:37.829Z,29.30
2018-07-31T16:58:05.394Z,29.60
2018-07-31T17:03:00.491Z,29.40
2018-07-31T17:05:28.086Z,29.40
2018-07-31T17:07:55.684Z,29.80
2018-07-31T17:10:23.267Z,30.00
2018-07-31T17:12:51.417Z,30.20
2018-07-31T17:15:19.695Z,30.50
2018-07-31T17:17:47.245Z,31.20
2018-07-31T17:20:14.895Z,31.30
2018-07-31T17:22:42.535Z,31.50
2018-07-31T17:25:10.117Z,32.00
2018-07-31T17:27:37.678Z,33.40
2018-07-31T17:30:05.288Z,32.90
2018-07-31T17:32:32.925Z,32.60
2018-07-31T17:35:00.491Z,32.80
2018-07-31T17:39:55.604Z,34.50
2018-07-31T17:42:23.270Z,35.10
2018-07-31T17:44:51.501Z,35.80
2018-07-31T17:47:19.664Z,36.30
2018-07-31T17:49:47.358Z,37.20
2018-07-31T17:52:14.928Z,38.20
2018-07-31T17:54:42.519Z,39.00
2018-07-31T17:57:10.123Z,39.80
2018-07-31T17:59:37.810Z,41.00
2018-07-31T18:02:05.569Z,42.60
2018-07-31T18:04:33.589Z,44.10
2018-07-31T18:07:01.471Z,45.90
2018-07-31T18:09:29.256Z,46.60
2018-07-31T18:11:56.842Z,47.60
2018-07-31T18:14:24.493Z,49.30
2018-07-31T18:19:25.918Z,49.10
2018-07-31T18:21:53.650Z,48.90
2018-07-31T18:24:21.914Z,50.10
2018-07-31T18:26:49.968Z,51.10
2018-07-31T18:29:17.717Z,51.00
2018-07-31T18:31:45.262Z,51.70
2018-07-31T18:34:12.864Z,52.20
2018-07-31T18:39:10.513Z,52.10
2018-07-31T18:41:38.206Z,51.80
2018-07-31T18:44:05.824Z,52.00
2018-07-31T18:46:33.493Z,52.20
2018-07-31T18:49:01.221Z,53.30
2018-07-31T18:51:28.835Z,52.90
2018-07-31T18:53:56.431Z,52.40
2018-07-31T18:56:24.002Z,53.50
2018-07-31T18:58:51.636Z,54.50
2018-07-31T19:01:20.136Z,55.10
2018-07-31T19:03:47.711Z,56.20
2018-07-31T19:06:15.317Z,56.80
2018-07-31T19:08:42.896Z,57.40
2018-07-31T19:11:10.488Z,58.00
2018-07-31T19:13:38.087Z,57.90
2018-07-31T19:16:05.670Z,58.00
2018-07-31T19:18:33.739Z,58.50
2018-07-31T19:21:01.560Z,58.90
2018-07-31T19:23:29.245Z,59.20
2018-07-31T19:25:57.043Z,60.00
2018-07-31T19:30:52.337Z,62.70
2018-07-31T19:33:20.260Z,62.30
2018-07-31T19:35:48.027Z,62.70
2018-07-31T19:38:15.737Z,63.30
2018-07-31T19:40:43.435Z,63.80
2018-07-31T19:43:11.228Z,64.20
2018-07-31T19:45:38.970Z,64.90
2018-07-31T19:48:06.652Z,66.00
2018-07-31T19:50:34.337Z,66.60
2018-07-31T19:53:02.034Z,67.10
2018-07-31T19:55:29.752Z,67.40
2018-07-31T19:57:57.385Z,67.80
2018-07-31T20:00:25.120Z,68.30
2018-07-31T20:02:52.840Z,69.10
2018-07-31T20:05:21.128Z,69.80
2018-07-31T20:07:48.793Z,69.90
2018-07-31T20:10:16.461Z,69.70
2018-07-31T20:12:44.110Z,70.00
2018-07-31T20:15:11.775Z,70.40
2018-07-31T20:17:39.462Z,70.50
2018-07-31T20:20:07.454Z,70.70
2018-07-31T20:22:35.162Z,71.70
2018-07-31T20:25:02.889Z,73.30
2018-07-31T20:27:30.714Z,73.80
2018-07-31T20:29:58.737Z,75.80
2018-07-31T20:32:26.432Z,75.70
2018-07-31T20:37:21.635Z,76.30
2018-07-31T20:39:50.334Z,76.90
2018-07-31T20:42:17.992Z,77.20
2018-07-31T20:47:13.100Z,77.60
2018-07-31T20:49:40.774Z,78.20
2018-07-31T20:52:08.424Z,78.70
2018-07-31T20:54:36.013Z,79.30
2018-07-31T20:57:03.622Z,80.10
2018-07-31T21:01:58.693Z,80.60
2018-07-31T21:04:26.264Z,81.10
2018-07-31T21:06:53.915Z,81.60
2018-07-31T21:09:21.605Z,82.00
2018-07-31T21:11:50.190Z,82.80
2018-07-31T21:14:18.095Z,83.50
2018-07-31T21:16:45.679Z,84.20
2018-07-31T21:19:13.265Z,85.20
2018-07-31T21:21:40.876Z,86.90
2018-07-31T21:24:08.565Z,86.90
2018-07-31T21:26:36.141Z,87.20
2018-07-31T21:29:03.727Z,87.40
2018-07-31T21:31:31.355Z,87.60
2018-07-31T21:33:58.943Z,87.70
2018-07-31T21:36:26.582Z,88.00
2018-07-31T21:38:54.125Z,88.30
2018-07-31T21:41:21.701Z,88.40
2018-07-31T21:43:49.762Z,88.70
2018-07-31T21:46:17.359Z,89.40
2018-07-31T21:51:12.644Z,90.10
2018-07-31T21:53:40.197Z,90.40
2018-07-31T21:56:07.756Z,90.50
2018-07-31T21:58:35.663Z,90.60
2018-07-31T22:01:07.522Z,90.70
2018-07-31T22:03:37.849Z,90.80
2018-07-31T22:06:05.959Z,91.10
2018-07-31T22:08:34.160Z,91.50
2018-07-31T22:11:01.724Z,91.70
2018-07-31T22:13:29.922Z,91.90
2018-07-31T22:15:57.621Z,91.90
2018-07-31T22:18:25.203Z,91.90
2018-07-31T22:20:52.780Z,92.00
2018-07-31T22:23:21.088Z,92.00
2018-07-31T22:25:48.646Z,92.00
2018-07-31T22:30:43.676Z,92.10
2018-07-31T22:33:11.454Z,92.10
2018-07-31T22:35:39.030Z,92.20
2018-07-31T22:38:07.407Z,92.30
2018-07-31T22:40:34.972Z,92.40
2018-07-31T22:43:02.566Z,92.50
2018-07-31T22:45:30.908Z,92.70
2018-07-31T22:47:58.547Z,92.80
2018-07-31T22:50:26.133Z,92.80
2018-07-31T22:52:53.689Z,92.90
2018-07-31T22:55:21.577Z,93.00
2018-07-31T22:57:49.817Z,93.00
2018-07-31T23:00:17.405Z,93.00
2018-07-31T23:02:44.977Z,93.10
2018-07-31T23:05:12.891Z,93.20
2018-07-31T23:07:40.468Z,93.30
2018-07-31T23:10:08.013Z,93.30
2018-07-31T23:12:35.561Z,93.40
2018-07-31T23:15:03.542Z,93.50
2018-07-31T23:17:31.565Z,93.50
2018-07-31T23:20:01.775Z,93.60
2018-07-31T23:22:42.237Z,93.70
2018-07-31T23:25:09.826Z,94.10
2018-07-31T23:30:06.371Z,94.10
2018-07-31T23:32:34.187Z,94.20
2018-07-31T23:35:01.807Z,94.40
2018-07-31T23:37:30.545Z,94.50
2018-07-31T23:39:58.857Z,94.60
2018-07-31T23:42:26.399Z,94.70
2018-07-31T23:47:21.847Z,94.70
2018-07-31T23:49:49.781Z,94.70
2018-07-31T23:52:17.390Z,94.80
2018-07-31T23:54:44.980Z,94.80
2018-07-31T23:57:12.519Z,94.80
2018-07-31T23:59:40.063Z,94.90
